Time;durP1;ratioP1;P1;durP2;ratioP2;P2;SDS_P1;SDS_P2;PMS_P1;PMS_P2;Temp;Humidity;BMP_temperature;BMP_pressure;BME280_temperature;BME280_humidity;BME280_pressure;Samples;Min_cycle;Max_cycle;Signal;HPM_P1;HPM_P2
2022/06/06 00:00:10;;;;;;;3.60;1.20;;;;;;;15.98;89.21;97821.34;6200721;28;20545;-85
2022/06/06 00:03:14;;;;;;;3.03;1.47;;;;;;;15.97;89.28;97797.56;6228699;28;20228;-85
2022/06/06 00:06:19;;;;;;;2.23;1.20;;;;;;;15.94;89.28;97803.19;6210909;28;20212;-85
2022/06/06 00:09:22;;;;;;;3.23;1.33;;;;;;;15.90;89.21;97793.81;6211056;28;20740;-85
2022/06/06 00:12:24;;;;;;;1.63;1.30;;;;;;;15.81;89.30;97782.28;6211141;28;20275;-85
2022/06/06 00:15:26;;;;;;;1.27;1.17;;;;;;;15.78;89.49;97762.13;6210973;28;20591;-85
2022/06/06 00:18:29;;;;;;;4.17;1.30;;;;;;;15.68;89.60;97750.72;6211265;28;20576;-85
2022/06/06 00:21:31;;;;;;;1.97;1.27;;;;;;;15.64;89.75;97737.91;6211424;28;20334;-85
2022/06/06 00:24:34;;;;;;;3.37;1.23;;;;;;;15.51;90.46;97725.78;6194075;28;20230;-85
2022/06/06 00:27:36;;;;;;;4.33;1.73;;;;;;;15.47;90.19;97710.31;6229748;28;20234;-85
2022/06/06 00:30:38;;;;;;;1.93;1.33;;;;;;;15.35;90.94;97690.25;6219952;28;20282;-85
2022/06/06 00:37:01;;;;;;;3.80;1.43;;;;;;;15.20;92.19;97655.34;6215413;28;20367;-85
2022/06/06 00:40:04;;;;;;;2.77;1.40;;;;;;;15.18;92.30;97667.97;6198488;28;20239;-85
2022/06/06 00:43:06;;;;;;;1.93;1.33;;;;;;;15.24;92.29;97707.25;6206812;28;20290;-85
2022/06/06 00:46:11;;;;;;;2.60;1.40;;;;;;;15.32;92.09;97733.09;6194595;28;20298;-86
2022/06/06 00:49:38;;;;;;;2.27;1.30;;;;;;;15.42;91.98;97768.41;6215872;28;20793;-86
2022/06/06 00:52:43;;;;;;;1.90;1.40;;;;;;;15.48;91.74;97810.34;6214886;28;20778;-86
2022/06/06 00:55:51;;;;;;;1.50;1.33;;;;;;;15.54;91.67;97838.19;6199094;28;20273;-86
2022/06/06 00:58:56;;;;;;;2.67;1.20;;;;;;;15.59;91.54;97843.91;6224197;28;20228;-86
2022/06/06 01:02:00;;;;;;;1.83;1.30;;;;;;;15.64;91.40;97839.84;6164042;28;20602;-86
2022/06/06 01:05:03;;;;;;;1.90;1.20;;;;;;;15.66;91.44;97832.56;6190736;28;20236;-85
2022/06/06 01:08:07;;;;;;;1.00;0.90;;;;;;;15.70;91.28;97828.59;6205306;28;20613;-85
2022/06/06 01:11:09;;;;;;;1.80;1.13;;;;;;;15.74;91.13;97837.94;6214530;28;20319;-85
2022/06/06 01:14:16;;;;;;;1.10;1.00;;;;;;;15.77;91.02;97828.84;6231173;28;20610;-85
2022/06/06 01:17:41;;;;;;;1.40;1.17;;;;;;;15.79;91.03;97819.69;6214012;28;20224;-85
2022/06/06 01:20:57;;;;;;;2.40;1.10;;;;;;;15.79;90.86;97816.19;6214819;28;20630;-85
2022/06/06 01:24:15;;;;;;;1.17;1.07;;;;;;;15.70;90.63;97812.63;6213416;28;20701;-85
2022/06/06 01:27:56;;;;;;;2.43;1.20;;;;;;;15.72;90.65;97807.97;6230850;28;20722;-85
2022/06/06 01:31:03;;;;;;;3.70;1.10;;;;;;;15.75;90.78;97805.03;6213668;28;20243;-85
2022/06/06 01:34:08;;;;;;;1.20;1.10;;;;;;;15.77;90.53;97799.56;6213874;28;20714;-85
2022/06/06 01:37:36;;;;;;;3.07;1.10;;;;;;;15.73;90.24;97801.69;6213972;28;20424;-85
2022/06/06 01:40:44;;;;;;;1.87;1.00;;;;;;;15.70;90.30;97803.78;6231184;28;20236;-84
2022/06/06 01:43:52;;;;;;;1.43;0.90;;;;;;;15.69;90.25;97804.78;6213752;28;20263;-85
2022/06/06 01:46:58;;;;;;;1.63;1.10;;;;;;;15.69;90.15;97796.78;6197708;28;20232;-84
2022/06/06 01:50:01;;;;;;;2.47;1.10;;;;;;;15.66;90.14;97803.28;6213905;28;20317;-84
2022/06/06 01:53:09;;;;;;;0.80;0.80;;;;;;;15.65;89.80;97796.28;6213842;28;20231;-84
2022/06/06 01:56:25;;;;;;;1.63;1.27;;;;;;;15.62;89.72;97799.25;6190667;28;20334;-85
2022/06/06 01:59:27;;;;;;;1.40;1.03;;;;;;;15.61;89.86;97788.75;6220155;28;20231;-85
2022/06/06 02:02:29;;;;;;;1.77;1.13;;;;;;;15.58;89.71;97789.88;6196643;28;20236;-85
2022/06/06 02:05:32;;;;;;;1.10;1.00;;;;;;;15.55;89.66;97792.03;6220451;28;20710;-85
2022/06/06 02:08:34;;;;;;;1.40;1.00;;;;;;;15.50;89.64;97785.28;6197570;28;20710;-85
2022/06/06 02:11:36;;;;;;;1.77;1.17;;;;;;;15.48;89.36;97789.91;6229566;28;20254;-85
2022/06/06 02:14:38;;;;;;;4.43;1.40;;;;;;;15.45;89.54;97784.91;6212906;28;20760;-85
2022/06/06 02:17:41;;;;;;;1.10;1.10;;;;;;;15.41;89.31;97791.50;6212839;28;20612;-85
2022/06/06 02:20:43;;;;;;;1.37;1.00;;;;;;;15.40;89.60;97781.88;6214392;28;20615;-85
2022/06/06 02:23:48;;;;;;;2.67;1.20;;;;;;;15.39;89.61;97790.81;6213613;28;20707;-84
2022/06/06 02:26:50;;;;;;;2.17;1.23;;;;;;;15.37;89.43;97774.19;6230728;28;20235;-85
2022/06/06 02:29:52;;;;;;;2.40;1.77;;;;;;;15.37;89.27;97786.66;6212315;28;20231;-85
2022/06/06 02:32:55;;;;;;;1.03;0.90;;;;;;;15.32;89.56;97783.59;6213077;28;20754;-85
2022/06/06 02:36:00;;;;;;;1.67;1.10;;;;;;;15.28;89.60;97780.41;6212338;28;20220;-85
2022/06/06 02:39:02;;;;;;;1.73;1.10;;;;;;;15.27;89.50;97780.56;6211956;28;20216;-85
2022/06/06 02:42:05;;;;;;;1.30;1.20;;;;;;;15.22;89.55;97778.34;6213329;28;20211;-85
2022/06/06 02:45:09;;;;;;;0.80;0.80;;;;;;;15.19;89.52;97786.63;6212317;28;20244;-84
2022/06/06 02:48:11;;;;;;;1.70;1.10;;;;;;;15.14;89.58;97794.22;6228433;28;20215;-85
2022/06/06 02:51:14;;;;;;;1.87;0.90;;;;;;;15.15;89.53;97785.25;6211626;28;20313;-85
2022/06/06 02:54:16;;;;;;;1.80;1.23;;;;;;;15.20;89.55;97782.97;6228909;28;20349;-84
2022/06/06 02:57:18;;;;;;;2.43;1.17;;;;;;;15.21;89.51;97789.97;6211782;28;20703;-85
2022/06/06 03:00:26;;;;;;;1.47;0.90;;;;;;;15.20;89.12;97784.78;6212507;28;20291;-85
2022/06/06 03:03:28;;;;;;;1.17;0.90;;;;;;;15.20;89.22;97788.28;6212552;28;20239;-85
2022/06/06 03:06:41;;;;;;;1.07;0.90;;;;;;;15.23;89.22;97789.81;6230443;28;20232;-85
2022/06/06 03:10:07;;;;;;;2.37;1.17;;;;;;;15.23;89.16;97788.00;6212698;28;20242;-85
2022/06/06 03:13:24;;;;;;;1.10;1.00;;;;;;;15.21;89.56;97783.81;6228865;28;20236;-85
2022/06/06 03:24:04;;;;;;;1.37;1.00;;;;;;;15.22;89.12;97782.84;6227783;28;20259;-84
2022/06/06 03:27:20;;;;;;;1.33;1.13;;;;;;;15.23;89.10;97780.03;6195872;28;20224;-85
2022/06/06 03:30:55;;;;;;;3.43;0.90;;;;;;;15.29;89.22;97778.56;6212341;28;20379;-85
2022/06/06 03:34:38;;;;;;;2.43;1.67;;;;;;;15.36;89.04;97780.50;6227754;28;20248;-85
2022/06/06 03:37:52;;;;;;;1.00;0.90;;;;;;;15.40;89.04;97779.19;6211888;28;20232;-85
2022/06/06 03:40:57;;;;;;;2.23;1.10;;;;;;;15.45;89.16;97768.97;6227830;28;20269;-85
2022/06/06 03:44:11;;;;;;;1.10;1.00;;;;;;;15.53;88.81;97770.84;6227783;28;20764;-85
2022/06/06 03:47:18;;;;;;;1.47;0.93;;;;;;;15.61;89.09;97764.81;6186539;28;20316;-85
2022/06/06 03:50:33;;;;;;;1.37;1.03;;;;;;;15.67;88.92;97769.53;6209980;28;20719;-85
2022/06/06 03:53:50;;;;;;;1.33;1.00;;;;;;;15.69;88.94;97760.38;6211098;28;20231;-85
2022/06/06 03:57:13;;;;;;;1.73;1.23;;;;;;;15.72;89.09;97765.41;6203322;28;20236;-85
2022/06/06 04:00:16;;;;;;;1.03;1.00;;;;;;;15.69;89.40;97767.53;6206148;28;20709;-85
2022/06/06 04:03:19;;;;;;;3.27;1.63;;;;;;;15.71;89.33;97778.88;6205419;28;20230;-85
2022/06/06 04:06:21;;;;;;;4.57;1.30;;;;;;;15.72;89.61;97786.69;6208979;28;20282;-85
2022/06/06 04:09:33;;;;;;;1.70;1.10;;;;;;;15.78;89.16;97777.25;6200080;28;20228;-83
2022/06/06 04:13:14;;;;;;;1.90;1.13;;;;;;;15.86;89.37;97775.53;6230972;28;20234;-83
2022/06/06 04:16:43;;;;;;;3.80;1.60;;;;;;;15.91;89.40;97779.53;6233365;28;20323;-83
2022/06/06 04:19:57;;;;;;;4.73;1.47;;;;;;;15.93;89.24;97791.69;6199374;28;20224;-83
2022/06/06 04:23:34;;;;;;;2.43;1.50;;;;;;;15.90;89.26;97792.00;6233515;28;20640;-83
2022/06/06 04:26:42;;;;;;;3.30;1.43;;;;;;;15.88;88.97;97792.16;6202493;28;20231;-84
2022/06/06 04:30:05;;;;;;;3.13;1.30;;;;;;;15.90;89.04;97799.16;6233530;28;20270;-85
2022/06/06 04:33:20;;;;;;;3.50;1.80;;;;;;;15.91;89.35;97798.16;6231782;28;20252;-83
2022/06/06 04:36:28;;;;;;;2.20;1.50;;;;;;;15.88;88.35;97804.63;6233109;28;20236;-84
2022/06/06 04:40:09;;;;;;;4.30;1.70;;;;;;;16.06;88.33;97807.28;6230994;28;20354;-83
2022/06/06 04:43:33;;;;;;;2.00;1.50;;;;;;;16.15;88.16;97809.84;6139598;28;20235;-83
2022/06/06 04:46:45;;;;;;;3.87;1.70;;;;;;;16.27;87.94;97812.28;6132894;28;20293;-84
2022/06/06 04:49:48;;;;;;;3.27;1.90;;;;;;;16.34;87.86;97816.81;6101319;28;20753;-83
2022/06/06 04:53:01;;;;;;;2.77;1.40;;;;;;;16.45;87.64;97813.06;6122943;28;20332;-84
2022/06/06 04:56:04;;;;;;;2.17;1.70;;;;;;;16.45;87.29;97813.91;6112776;28;20321;-83
2022/06/06 04:59:09;;;;;;;2.93;1.63;;;;;;;16.50;86.67;97814.25;6146333;28;20233;-84
2022/06/06 05:02:12;;;;;;;4.60;1.90;;;;;;;16.52;86.73;97808.78;6123456;28;20274;-84
2022/06/06 05:05:14;;;;;;;3.60;1.77;;;;;;;16.51;87.14;97797.28;6124389;29;20259;-85
2022/06/06 05:08:46;;;;;;;4.33;2.07;;;;;;;16.52;86.82;97814.09;6108024;29;20318;-85
2022/06/06 05:12:12;;;;;;;2.60;1.80;;;;;;;16.56;86.24;97821.63;6124212;29;20262;-85
2022/06/06 05:15:55;;;;;;;4.63;2.00;;;;;;;16.62;86.05;97814.03;6108549;29;20898;-85
2022/06/06 05:19:25;;;;;;;4.23;2.20;;;;;;;16.74;86.10;97824.25;6101831;29;20719;-85
2022/06/06 05:22:34;;;;;;;2.93;1.90;;;;;;;16.95;85.75;97818.53;6123325;28;20878;-84
2022/06/06 05:26:04;;;;;;;2.67;1.70;;;;;;;17.10;85.62;97822.25;6132544;29;22151;-84
2022/06/06 05:29:06;;;;;;;1.80;1.50;;;;;;;17.21;85.65;97829.13;6116322;29;20227;-84
2022/06/06 05:32:19;;;;;;;1.80;1.70;;;;;;;17.26;85.56;97837.50;6118143;29;20273;-84
2022/06/06 05:35:45;;;;;;;1.50;1.40;;;;;;;17.23;85.67;97844.00;6113279;29;20235;-84
2022/06/06 05:39:00;;;;;;;2.87;1.60;;;;;;;17.15;85.21;97840.47;6115549;29;20308;-84
2022/06/06 05:42:46;;;;;;;2.57;1.80;;;;;;;17.14;85.41;97847.63;6114485;28;20236;-84
2022/06/06 05:45:54;;;;;;;2.00;1.90;;;;;;;17.19;85.50;97847.97;6096037;29;20788;-84
2022/06/06 05:49:16;;;;;;;2.33;1.50;;;;;;;17.23;85.45;97843.16;6140375;28;20593;-84
2022/06/06 05:52:40;;;;;;;3.20;2.03;;;;;;;17.25;85.35;97862.50;6205073;28;20236;-84
2022/06/06 05:55:49;;;;;;;2.83;2.10;;;;;;;17.16;85.44;97860.81;6205876;28;20263;-84
2022/06/06 05:59:10;;;;;;;3.10;2.07;;;;;;;17.17;84.75;97854.47;6188595;28;20787;-84
2022/06/06 06:02:33;;;;;;;2.20;2.00;;;;;;;17.21;84.94;97848.66;6189655;28;20485;-84
2022/06/06 06:06:00;;;;;;;2.33;2.00;;;;;;;17.30;84.79;97853.00;6189660;28;20264;-85
2022/06/06 06:09:26;;;;;;;2.80;2.00;;;;;;;17.25;84.15;97847.34;6188131;28;20225;-86
2022/06/06 06:12:56;;;;;;;3.57;1.97;;;;;;;17.35;84.41;97844.53;6204163;28;20738;-86
2022/06/06 06:16:02;;;;;;;4.03;2.00;;;;;;;17.43;83.65;97849.06;6188690;28;20701;-86
2022/06/06 06:19:11;;;;;;;3.60;1.70;;;;;;;17.56;83.26;97844.09;6204028;28;20240;-86
2022/06/06 06:22:14;;;;;;;3.60;1.93;;;;;;;17.58;81.89;97850.09;6188318;28;20591;-86
2022/06/06 06:25:19;;;;;;;3.80;1.77;;;;;;;17.68;81.13;97848.16;6164158;28;20269;-86
2022/06/06 06:28:22;;;;;;;2.80;1.83;;;;;;;17.81;80.25;97861.88;6198392;28;20613;-86
2022/06/06 06:31:52;;;;;;;2.50;1.60;;;;;;;18.17;79.60;97850.91;6188212;28;20240;-86
2022/06/06 06:35:31;;;;;;;1.80;1.70;;;;;;;18.59;78.41;97861.41;6188392;28;20688;-86
2022/06/06 06:39:09;;;;;;;2.13;1.93;;;;;;;18.55;75.42;97876.94;6205991;28;20224;-86
2022/06/06 06:42:32;;;;;;;2.67;1.83;;;;;;;18.81;74.09;97871.41;6107624;29;20295;-85
2022/06/06 06:45:49;;;;;;;2.47;1.40;;;;;;;19.19;74.29;97875.16;6092153;28;20275;-85
2022/06/06 06:48:59;;;;;;;1.60;1.50;;;;;;;19.39;73.72;97867.56;6129125;28;20231;-85
2022/06/06 06:52:40;;;;;;;1.70;1.60;;;;;;;19.75;73.54;97871.44;6096684;29;20382;-85
2022/06/06 06:56:11;;;;;;;3.13;1.70;;;;;;;20.15;69.74;97866.84;6083429;28;20573;-86
2022/06/06 06:59:22;;;;;;;4.50;1.80;;;;;;;20.23;70.68;97874.81;6108238;28;20292;-85
2022/06/06 07:09:53;;;;;;;2.83;1.70;;;;;;;19.98;66.71;97876.81;6095231;29;20270;-85
2022/06/06 07:13:13;;;;;;;2.20;1.60;;;;;;;20.05;67.55;97885.00;6075317;29;20859;-85
2022/06/06 07:16:23;;;;;;;2.50;1.70;;;;;;;19.81;66.46;97872.56;6087293;28;20720;-85
2022/06/06 07:19:39;;;;;;;2.13;1.43;;;;;;;19.76;68.60;97878.47;6189853;28;20224;-85
2022/06/06 07:23:04;;;;;;;1.93;1.30;;;;;;;19.75;69.20;97863.41;6187291;28;20591;-85
2022/06/06 07:26:08;;;;;;;1.53;1.43;;;;;;;19.84;69.72;97869.53;6204481;28;20220;-85
2022/06/06 07:29:13;;;;;;;1.50;1.40;;;;;;;19.84;67.30;97875.75;6187285;28;20220;-86
2022/06/06 07:32:28;;;;;;;1.63;1.30;;;;;;;20.29;67.29;97868.72;6187101;28;20239;-86
2022/06/06 07:35:47;;;;;;;2.40;1.40;;;;;;;20.67;66.48;97856.16;6202862;28;20703;-86
2022/06/06 07:39:26;;;;;;;2.00;1.30;;;;;;;20.91;67.52;97865.84;6191584;28;20311;-86
2022/06/06 07:42:40;;;;;;;3.23;1.43;;;;;;;21.02;63.33;97856.50;6196231;28;20224;-86
2022/06/06 07:45:52;;;;;;;2.60;1.37;;;;;;;21.42;63.40;97853.38;6192212;28;20235;-86
2022/06/06 07:49:04;;;;;;;2.33;1.50;;;;;;;21.79;63.05;97862.28;6192304;28;20243;-86
2022/06/06 07:52:19;;;;;;;2.53;1.13;;;;;;;21.78;61.63;97858.75;6207847;28;20388;-86
2022/06/06 07:55:33;;;;;;;3.63;1.70;;;;;;;22.03;60.96;97864.66;6213440;28;20746;-86
2022/06/06 07:59:12;;;;;;;4.43;1.30;;;;;;;22.08;59.17;97860.34;6198958;28;20713;-86
2022/06/06 08:02:33;;;;;;;3.53;1.47;;;;;;;22.22;61.78;97863.19;6186601;28;20653;-85
2022/06/06 08:06:04;;;;;;;3.07;1.50;;;;;;;22.41;61.23;97863.38;6174313;28;20216;-85
2022/06/06 08:09:15;;;;;;;1.60;1.50;;;;;;;22.57;60.48;97862.25;6190836;28;20232;-85
2022/06/06 08:12:25;;;;;;;2.87;1.43;;;;;;;23.10;59.37;97862.66;6206774;28;20606;-85
2022/06/06 08:16:13;;;;;;;1.57;1.30;;;;;;;23.77;59.61;97860.13;6191050;28;20323;-85
2022/06/06 08:19:41;;;;;;;1.40;1.30;;;;;;;24.43;57.36;97851.38;6082539;29;20389;-86
2022/06/06 08:22:44;;;;;;;1.43;1.10;;;;;;;25.00;56.00;97853.44;6124686;28;20239;-85
2022/06/06 08:25:49;;;;;;;4.23;1.50;;;;;;;25.26;54.98;97847.16;6166705;28;20237;-86
2022/06/06 08:28:52;;;;;;;2.30;1.50;;;;;;;24.90;54.41;97864.66;6172247;28;20233;-85
2022/06/06 08:31:54;;;;;;;1.43;1.33;;;;;;;25.09;54.80;97865.69;6188168;28;20241;-85
2022/06/06 08:34:57;;;;;;;2.03;1.20;;;;;;;24.93;52.53;97856.16;6178633;28;20232;-85
2022/06/06 08:38:11;;;;;;;1.43;1.20;;;;;;;24.77;53.08;97855.72;6195715;28;20333;-85
2022/06/06 08:41:34;;;;;;;2.73;1.20;;;;;;;24.83;52.14;97860.31;6190280;28;20713;-85
2022/06/06 08:45:15;;;;;;;2.20;1.30;;;;;;;24.76;50.00;97852.19;6207599;28;20272;-85
2022/06/06 08:48:58;;;;;;;1.43;1.33;;;;;;;24.60;51.83;97852.63;6206315;28;20205;-85
2022/06/06 08:52:29;;;;;;;1.40;1.30;;;;;;;24.77;49.95;97856.56;6142163;28;20585;-85
2022/06/06 08:55:37;;;;;;;1.40;1.27;;;;;;;25.14;51.28;97852.41;6140554;28;20268;-85
2022/06/06 08:59:08;;;;;;;1.10;1.07;;;;;;;25.06;49.91;97849.91;6187737;28;20327;-85
2022/06/06 09:03:02;;;;;;;2.28;1.40;;;;;;;25.38;47.58;97856.25;6183968;28;20755;-85
2022/06/06 09:06:42;;;;;;;2.55;1.10;;;;;;;25.78;49.48;97848.84;6210322;28;20605;-85
2022/06/06 09:10:17;;;;;;;1.80;1.23;;;;;;;26.50;47.96;97852.19;6217093;28;20240;-85
2022/06/06 09:13:57;;;;;;;2.13;0.95;;;;;;;26.91;46.04;97857.06;6231871;28;20323;-85
2022/06/06 09:17:19;;;;;;;3.60;1.10;;;;;;;26.91;46.37;97848.94;6198104;28;20599;-85
2022/06/06 09:20:50;;;;;;;1.42;1.33;;;;;;;26.34;45.04;97843.56;6233355;28;20339;-85
2022/06/06 09:23:52;;;;;;;1.35;1.25;;;;;;;26.44;46.96;97848.50;6201174;28;20258;-85
2022/06/06 09:27:16;;;;;;;1.70;1.23;;;;;;;26.90;47.13;97839.13;6207105;28;20235;-85
2022/06/06 09:30:33;;;;;;;1.17;1.05;;;;;;;27.42;46.41;97838.63;6231229;28;20231;-85
2022/06/06 09:33:38;;;;;;;2.03;1.17;;;;;;;28.17;44.92;97832.88;6232320;28;20231;-85
2022/06/06 09:37:00;;;;;;;2.47;1.20;;;;;;;28.37;43.94;97838.84;6213382;28;20717;-85
2022/06/06 09:40:35;;;;;;;1.10;1.00;;;;;;;28.41;43.38;97834.59;6246838;28;20327;-85
2022/06/06 09:43:54;;;;;;;1.45;1.35;;;;;;;27.90;41.61;97840.53;6231162;28;20235;-86
2022/06/06 09:47:33;;;;;;;3.05;1.30;;;;;;;27.68;43.34;97837.50;6213609;28;20224;-85
2022/06/06 09:50:48;;;;;;;1.80;1.50;;;;;;;27.60;43.41;97839.69;6229260;28;20216;-85
2022/06/06 10:01:51;;;;;;;1.88;1.20;;;;;;;28.35;43.44;97821.94;6231524;28;20282;-86
2022/06/06 10:05:15;;;;;;;1.50;1.40;;;;;;;28.60;42.24;97827.19;6211855;28;20776;-86
2022/06/06 10:08:20;;;;;;;1.40;1.30;;;;;;;28.72;42.60;97836.19;6212656;28;20231;-86
2022/06/06 10:11:59;;;;;;;3.25;1.40;;;;;;;28.72;40.21;97836.19;6212974;28;20699;-87
2022/06/06 10:15:20;;;;;;;1.90;1.50;;;;;;;29.00;41.84;97835.50;6195600;28;20254;-86
2022/06/06 10:18:37;;;;;;;2.25;1.38;;;;;;;29.03;41.72;97832.34;6214320;28;20236;-86
2022/06/06 10:22:03;;;;;;;2.17;1.20;;;;;;;29.31;39.96;97843.28;6228931;28;20322;-86
2022/06/06 10:25:24;;;;;;;2.38;1.60;;;;;;;29.06;42.51;97831.00;6195202;28;20766;-86
2022/06/06 10:28:45;;;;;;;1.45;1.35;;;;;;;28.91;41.88;97842.38;6223036;28;20756;-85
2022/06/06 10:32:12;;;;;;;1.40;1.27;;;;;;;29.45;40.45;97843.06;6224809;28;20286;-86
2022/06/06 10:35:27;;;;;;;1.40;1.30;;;;;;;29.78;39.40;97837.75;6228333;28;20228;-86
2022/06/06 10:38:50;;;;;;;2.92;1.52;;;;;;;29.76;37.50;97829.00;6228126;28;20232;-86
2022/06/06 10:42:03;;;;;;;1.90;1.30;;;;;;;29.91;38.02;97829.31;6227832;28;20228;-86
2022/06/06 10:45:59;;;;;;;3.30;1.50;;;;;;;30.13;37.53;97828.66;6208328;28;20247;-85
2022/06/06 10:49:14;;;;;;;2.03;1.20;;;;;;;30.67;38.26;97827.16;6227768;28;20573;-85
2022/06/06 10:52:32;;;;;;;1.70;1.13;;;;;;;30.69;35.79;97830.47;6227922;28;20286;-85
2022/06/06 10:56:29;;;;;;;2.35;1.02;;;;;;;30.70;38.99;97819.34;6212893;28;20231;-85
2022/06/06 10:59:31;;;;;;;1.23;1.13;;;;;;;30.87;37.23;97821.22;6111628;29;20240;-85
2022/06/06 11:02:58;;;;;;;2.10;1.30;;;;;;;30.84;36.52;97824.47;6098174;29;20329;-86
2022/06/06 11:06:09;;;;;;;1.95;1.40;;;;;;;30.28;38.39;97827.03;6113742;28;20231;-86
2022/06/06 11:09:32;;;;;;;1.27;1.17;;;;;;;30.07;38.65;97823.13;6129550;28;20215;-85
2022/06/06 11:12:36;;;;;;;1.50;1.38;;;;;;;30.38;38.40;97832.66;6129400;28;20390;-85
2022/06/06 11:15:47;;;;;;;1.25;1.10;;;;;;;30.86;35.37;97823.13;6091543;29;20255;-85
2022/06/06 11:19:07;;;;;;;1.95;1.20;;;;;;;30.52;37.28;97819.59;6111522;28;20321;-85
2022/06/06 11:22:33;;;;;;;1.25;1.08;;;;;;;30.11;39.02;97828.91;6129386;28;20230;-85
2022/06/06 11:26:07;;;;;;;3.28;1.20;;;;;;;31.15;37.37;97819.22;6129988;28;20726;-85
2022/06/06 11:29:37;;;;;;;3.13;1.10;;;;;;;31.66;36.31;97813.63;6130272;28;20222;-85
2022/06/06 11:32:50;;;;;;;1.95;1.48;;;;;;;31.43;35.88;97822.88;6129273;28;20234;-86
2022/06/06 11:36:23;;;;;;;1.65;1.50;;;;;;;31.67;34.52;97820.72;6192831;28;20783;-85
2022/06/06 11:39:49;;;;;;;2.63;1.20;;;;;;;32.30;33.20;97814.63;6191723;28;20228;-85
2022/06/06 11:43:16;;;;;;;1.13;1.05;;;;;;;32.11;34.55;97800.47;6211083;28;20314;-85
2022/06/06 11:46:55;;;;;;;1.30;1.20;;;;;;;31.15;36.68;97808.31;6186250;28;20259;-85
2022/06/06 11:50:09;;;;;;;2.47;1.30;;;;;;;31.20;36.35;97804.00;6226126;28;20227;-85
2022/06/06 11:53:23;;;;;;;2.47;1.30;;;;;;;31.36;36.12;97805.84;6210938;28;20785;-85
2022/06/06 11:56:56;;;;;;;1.23;1.13;;;;;;;31.92;34.51;97796.47;6202559;28;20802;-85
2022/06/06 12:00:13;;;;;;;1.63;1.10;;;;;;;31.87;34.68;97797.22;6185888;28;20635;-85
2022/06/06 12:03:34;;;;;;;1.40;1.17;;;;;;;31.76;36.28;97791.91;6198635;28;20240;-86
2022/06/06 12:07:02;;;;;;;1.45;1.20;;;;;;;31.14;36.30;97803.13;6238388;28;20382;-85
2022/06/06 12:10:19;;;;;;;3.67;1.20;;;;;;;31.50;34.39;97788.03;6242995;28;20714;-85
2022/06/06 12:13:41;;;;;;;1.95;1.27;;;;;;;31.71;34.31;97784.50;6228281;28;20275;-85
2022/06/06 12:16:49;;;;;;;2.47;1.50;;;;;;;32.12;33.70;97783.03;6227720;28;20851;-85
2022/06/06 12:19:58;;;;;;;1.38;1.00;;;;;;;31.63;35.67;97778.69;6194437;28;20225;-86
2022/06/06 12:23:15;;;;;;;1.75;1.25;;;;;;;31.07;37.92;97783.34;6227397;28;20232;-85
2022/06/06 12:26:38;;;;;;;2.45;1.10;;;;;;;30.39;38.27;97782.56;6233272;28;20747;-85
2022/06/06 12:30:02;;;;;;;1.42;1.20;;;;;;;30.68;39.57;97775.16;6192397;28;20232;-85
2022/06/06 12:33:43;;;;;;;5.40;1.10;;;;;;;31.61;40.13;97767.97;6219434;28;20243;-85
2022/06/06 12:37:10;;;;;;;1.08;0.90;;;;;;;31.90;35.09;97768.59;6233317;28;20239;-85
2022/06/06 12:40:51;;;;;;;2.78;1.27;;;;;;;32.35;35.21;97762.75;6230215;28;20228;-85
2022/06/06 12:44:04;;;;;;;1.33;1.17;;;;;;;32.86;33.37;97757.69;6178518;28;20567;-85
2022/06/06 12:47:45;;;;;;;1.80;1.30;;;;;;;33.34;31.06;97757.41;6214654;28;20236;-86
2022/06/06 12:51:08;;;;;;;1.23;1.10;;;;;;;33.26;29.51;97754.38;6232659;28;20717;-85
2022/06/06 12:55:13;;;;;;;1.10;1.00;;;;;;;32.91;31.09;97761.28;6230945;28;20831;-86
2022/06/06 12:58:19;;;;;;;2.00;1.30;;;;;;;32.12;32.00;97750.25;6230453;28;20232;-85
2022/06/06 13:01:59;;;;;;;1.55;1.10;;;;;;;32.39;33.02;97750.22;6218557;28;20239;-85
2022/06/06 13:05:22;;;;;;;1.27;1.17;;;;;;;33.34;32.62;97749.19;6237363;28;20750;-86
2022/06/06 13:08:53;;;;;;;1.70;1.55;;;;;;;33.53;29.94;97735.06;6225568;28;20228;-85
2022/06/06 13:11:58;;;;;;;1.20;1.10;;;;;;;32.31;31.76;97744.41;6195368;28;20232;-86
2022/06/06 13:15:11;;;;;;;1.77;1.23;;;;;;;31.77;31.99;97742.53;6236783;28;20231;-85
2022/06/06 13:18:46;;;;;;;0.98;0.98;;;;;;;32.26;31.67;97745.19;6245916;28;20259;-85
2022/06/06 13:22:08;;;;;;;1.40;1.15;;;;;;;33.17;32.76;97725.84;6230353;28;20239;-85
2022/06/06 13:25:38;;;;;;;1.45;1.35;;;;;;;33.18;32.33;97730.22;6221518;28;20269;-85
2022/06/06 13:28:53;;;;;;;2.10;1.13;;;;;;;33.35;31.00;97715.28;6210481;28;20275;-85
2022/06/06 13:32:01;;;;;;;1.60;1.50;;;;;;;33.47;29.77;97723.25;6216958;28;20239;-86
2022/06/06 13:35:28;;;;;;;2.33;1.42;;;;;;;33.30;28.34;97717.19;6212379;28;20259;-86
2022/06/06 13:38:44;;;;;;;1.38;1.23;;;;;;;33.38;28.92;97713.94;6196752;28;20228;-85
2022/06/06 13:41:49;;;;;;;1.00;1.00;;;;;;;33.92;27.47;97706.16;6246546;28;20239;-86
2022/06/06 13:45:09;;;;;;;3.60;1.40;;;;;;;34.37;27.61;97708.09;6228953;28;20572;-86
2022/06/06 13:48:17;;;;;;;2.25;1.25;;;;;;;34.24;30.03;97707.81;6230118;28;20235;-86
2022/06/06 13:51:36;;;;;;;1.45;1.10;;;;;;;34.73;29.10;97705.31;6228101;28;20292;-85
2022/06/06 13:54:39;;;;;;;0.95;0.90;;;;;;;35.32;28.06;97707.34;6228672;28;20307;-86
2022/06/06 13:57:58;;;;;;;0.95;0.95;;;;;;;36.01;28.28;97695.44;6229507;28;20687;-85
2022/06/06 14:01:24;;;;;;;2.47;1.13;;;;;;;36.92;27.50;97700.13;6259125;28;20608;-85
2022/06/06 14:04:38;;;;;;;1.20;1.10;;;;;;;38.08;25.39;97700.53;6211242;28;20240;-85
2022/06/06 14:07:51;;;;;;;1.30;1.00;;;;;;;38.81;22.65;97699.84;6214007;28;20746;-85
2022/06/06 14:10:53;;;;;;;1.48;1.00;;;;;;;39.97;21.45;97698.50;6212001;28;20596;-86
2022/06/06 14:13:59;;;;;;;1.00;1.00;;;;;;;40.46;20.10;97686.53;6196559;28;20236;-86
2022/06/06 14:17:27;;;;;;;2.85;1.23;;;;;;;41.84;19.51;97689.78;6196484;28;20233;-85
2022/06/06 14:20:57;;;;;;;1.30;1.20;;;;;;;43.20;18.24;97687.13;6201351;28;20232;-86
2022/06/06 14:24:14;;;;;;;1.33;1.13;;;;;;;44.11;15.50;97675.22;6211698;28;20238;-86
2022/06/06 14:27:19;;;;;;;1.27;1.10;;;;;;;44.13;15.57;97674.84;6232301;28;20232;-85
2022/06/06 14:30:25;;;;;;;1.60;1.20;;;;;;;44.04;16.10;97671.31;6229397;28;20238;-86
2022/06/06 14:33:31;;;;;;;2.25;0.98;;;;;;;44.93;16.84;97677.28;6230099;28;20274;-85
2022/06/06 14:36:33;;;;;;;2.38;1.30;;;;;;;45.36;15.84;97674.75;6215227;28;20729;-86
2022/06/06 14:39:36;;;;;;;1.48;0.90;;;;;;;45.97;14.53;97660.72;6235620;28;20231;-85
2022/06/06 14:42:40;;;;;;;2.53;1.10;;;;;;;45.54;15.17;97669.75;6193507;28;20229;-86
2022/06/06 14:45:45;;;;;;;1.48;1.00;;;;;;;45.94;15.20;97664.19;6202911;28;20268;-85
2022/06/06 14:48:54;;;;;;;1.80;1.08;;;;;;;46.49;14.60;97662.59;6196562;28;20239;-86
2022/06/06 14:51:59;;;;;;;1.30;0.90;;;;;;;46.42;13.37;97652.00;6212810;28;20239;-85
2022/06/06 14:55:02;;;;;;;1.95;1.13;;;;;;;46.39;14.44;97647.16;6192160;28;20232;-86
2022/06/06 14:58:11;;;;;;;1.92;1.10;;;;;;;46.47;12.31;97650.94;6198148;28;20301;-86
2022/06/06 15:01:19;;;;;;;1.15;0.93;;;;;;;45.72;16.51;97650.78;6195784;28;20234;-86
2022/06/06 15:04:27;;;;;;;3.03;0.98;;;;;;;45.22;16.32;97650.03;6221157;28;20234;-85
2022/06/06 15:07:42;;;;;;;2.22;1.30;;;;;;;45.70;16.67;97647.53;6241620;28;20268;-85
2022/06/06 15:10:50;;;;;;;3.80;1.00;;;;;;;46.18;13.58;97632.59;6227750;28;21037;-85
2022/06/06 15:14:18;;;;;;;2.33;1.00;;;;;;;46.23;14.29;97632.31;6227110;28;20286;-85
2022/06/06 15:17:21;;;;;;;1.00;0.90;;;;;;;46.01;14.32;97627.34;6223554;28;20227;-85
2022/06/06 15:20:30;;;;;;;1.33;1.10;;;;;;;45.85;14.02;97622.47;6227796;28;20235;-85
2022/06/06 15:23:43;;;;;;;3.15;1.20;;;;;;;46.15;15.02;97625.72;6227539;28;20228;-86
2022/06/06 15:27:02;;;;;;;1.35;1.10;;;;;;;46.13;12.81;97611.31;6228097;28;20235;-85
2022/06/06 15:30:04;;;;;;;1.13;1.02;;;;;;;46.20;14.03;97611.53;6226694;28;20362;-85
2022/06/06 15:33:28;;;;;;;2.00;1.30;;;;;;;46.01;14.89;97610.59;6227343;28;20322;-85
2022/06/06 15:36:49;;;;;;;1.30;0.82;;;;;;;45.74;14.76;97606.59;6226446;28;20322;-85
2022/06/06 15:40:19;;;;;;;1.58;1.27;;;;;;;44.41;16.03;97602.72;6227296;28;20293;-85
2022/06/06 15:44:18;;;;;;;6.38;1.65;;;;;;;44.66;17.32;97600.75;6228728;28;20322;-85
2022/06/06 15:47:44;;;;;;;1.00;0.90;;;;;;;44.04;17.01;97597.03;6122002;28;20237;-85
2022/06/06 15:50:54;;;;;;;2.85;1.30;;;;;;;43.05;19.05;97602.34;6147227;28;20709;-85